Time;durP1;ratioP1;P1;durP2;ratioP2;P2;SDS_P1;SDS_P2;PMS_P1;PMS_P2;Temp;Humidity;BMP_temperature;BMP_pressure;BME280_temperature;BME280_humidity;BME280_pressure;Samples;Min_cycle;Max_cycle;Signal;HPM_P1;HPM_P2
2021/07/10 00:01:31;;;;;;;0.88;0.20;;;;;;;24.30;40.06;100012.59;4344550;32;34504;-86
2021/07/10 00:03:59;;;;;;;0.37;0.20;;;;;;;24.14;40.32;100004.59;4332776;32;33494;-89
2021/07/10 00:06:27;;;;;;;0.20;0.13;;;;;;;24.26;40.22;100011.91;4332875;32;34585;-85
2021/07/10 00:08:55;;;;;;;1.00;0.30;;;;;;;24.28;40.17;100011.81;4344571;32;34234;-85
2021/07/10 00:11:23;;;;;;;0.45;0.22;;;;;;;24.16;40.73;100008.88;4332228;32;33021;-87
2021/07/10 00:13:52;;;;;;;1.95;0.20;;;;;;;23.98;40.84;100011.59;4333114;32;33318;-88
2021/07/10 00:16:20;;;;;;;3.62;0.37;;;;;;;24.11;40.78;100013.56;4346517;32;34674;-88
2021/07/10 00:18:49;;;;;;;0.75;0.13;;;;;;;24.12;41.10;100001.16;4323055;32;32985;-89
2021/07/10 00:21:17;;;;;;;2.12;0.10;;;;;;;24.15;41.29;100001.84;4334484;32;34151;-88
2021/07/10 00:23:46;;;;;;;0.20;0.20;;;;;;;24.14;41.25;99992.16;4335102;32;34509;-90
2021/07/10 00:26:17;;;;;;;0.40;0.30;;;;;;;24.27;40.98;99997.66;4347311;32;34610;-91
2021/07/10 00:28:44;;;;;;;1.62;0.40;;;;;;;24.04;41.64;99992.69;4347414;32;33712;-88
2021/07/10 00:31:12;;;;;;;0.20;0.20;;;;;;;23.90;41.87;99996.06;4334919;32;33264;-87
2021/07/10 00:33:40;;;;;;;0.60;0.30;;;;;;;23.88;41.77;99989.09;4335511;32;35051;-86
2021/07/10 00:36:08;;;;;;;0.40;0.22;;;;;;;23.76;41.89;99998.56;4335356;32;34627;-87
2021/07/10 00:38:36;;;;;;;1.05;0.28;;;;;;;23.67;42.32;99987.53;4335837;32;33790;-90
2021/07/10 00:41:04;;;;;;;1.52;0.30;;;;;;;23.52;42.79;99990.03;4335571;32;32557;-89
2021/07/10 00:43:32;;;;;;;0.30;0.30;;;;;;;23.50;42.97;99981.28;4347937;32;33507;-88
2021/07/10 00:46:00;;;;;;;0.85;0.30;;;;;;;23.48;43.10;99995.56;4335715;32;34781;-86
2021/07/10 00:48:29;;;;;;;0.50;0.20;;;;;;;23.55;42.84;99987.25;4360847;32;34519;-88
2021/07/10 00:50:57;;;;;;;0.45;0.30;;;;;;;23.43;43.31;99984.31;4336029;32;33736;-88
2021/07/10 00:53:25;;;;;;;0.60;0.20;;;;;;;23.21;43.91;99987.13;4347462;32;34437;-87
2021/07/10 00:55:54;;;;;;;0.77;0.30;;;;;;;23.23;43.74;99987.91;4347517;32;34910;-88
2021/07/10 00:58:21;;;;;;;0.17;0.10;;;;;;;23.09;43.86;99985.06;4347207;32;33515;-85
2021/07/10 01:00:49;;;;;;;0.57;0.30;;;;;;;23.05;44.36;99983.50;4335108;32;32503;-87
2021/07/10 01:03:18;;;;;;;1.08;0.47;;;;;;;22.98;44.49;99991.84;4346736;32;34797;-87
2021/07/10 01:05:46;;;;;;;0.35;0.30;;;;;;;22.77;44.84;99994.56;4346695;32;34564;-87
2021/07/10 01:08:14;;;;;;;1.23;0.30;;;;;;;22.92;44.44;99988.53;4334456;32;35222;-86
2021/07/10 01:10:42;;;;;;;1.95;0.40;;;;;;;22.75;44.91;99998.19;4346113;32;33082;-86
2021/07/10 01:13:12;;;;;;;1.83;0.40;;;;;;;22.70;45.21;99997.59;4334252;32;34236;-89
2021/07/10 01:15:39;;;;;;;1.77;0.28;;;;;;;22.80;44.94;99990.91;4334800;32;34447;-86
2021/07/10 01:18:07;;;;;;;2.83;0.30;;;;;;;22.62;45.52;99991.75;4347765;32;34339;-87
2021/07/10 01:20:52;;;;;;;0.65;0.30;;;;;;;22.49;45.81;100002.03;4335902;32;33536;-85
2021/07/10 01:23:23;;;;;;;0.20;0.20;;;;;;;22.50;45.87;99990.50;4323184;32;35013;-87
2021/07/10 01:25:51;;;;;;;0.57;0.30;;;;;;;22.40;46.11;99989.19;4347708;32;33936;-85
2021/07/10 01:28:19;;;;;;;0.70;0.22;;;;;;;22.24;46.65;99997.00;4347071;32;34579;-87
2021/07/10 01:30:49;;;;;;;0.62;0.28;;;;;;;22.62;45.81;99994.41;4334784;32;33280;-87
2021/07/10 01:33:18;;;;;;;0.70;0.22;;;;;;;22.35;46.47;99990.31;4335322;32;33862;-86
2021/07/10 01:35:47;;;;;;;1.25;0.32;;;;;;;22.33;46.73;99987.75;4329761;32;35782;-87
2021/07/10 01:38:15;;;;;;;0.30;0.30;;;;;;;22.64;45.90;99997.84;4360906;32;33726;-88
2021/07/10 01:40:43;;;;;;;0.15;0.15;;;;;;;22.47;46.32;99992.44;4335513;32;33476;-89
2021/07/10 01:43:12;;;;;;;0.28;0.28;;;;;;;22.35;46.49;99992.97;4335554;32;34274;-91
2021/07/10 01:45:40;;;;;;;0.50;0.40;;;;;;;22.47;46.20;99985.34;4334996;32;34010;-90
2021/07/10 01:48:10;;;;;;;1.65;0.40;;;;;;;22.20;46.72;99990.09;4323230;32;33979;-88
2021/07/10 01:50:40;;;;;;;0.52;0.40;;;;;;;22.41;46.23;99990.06;4335246;32;33460;-86
2021/07/10 01:53:10;;;;;;;2.47;0.40;;;;;;;22.48;45.94;99995.03;4347302;32;33942;-89
2021/07/10 01:55:39;;;;;;;0.30;0.20;;;;;;;22.38;45.83;99996.38;4322671;32;33986;-87
2021/07/10 01:58:07;;;;;;;0.50;0.30;;;;;;;22.46;45.85;99988.94;4359285;32;35023;-87
2021/07/10 02:00:43;;;;;;;2.50;0.30;;;;;;;22.29;45.89;99995.91;4334614;32;33724;-87
2021/07/10 02:03:12;;;;;;;1.65;0.50;;;;;;;22.14;45.81;99992.16;4333628;32;32866;-86
2021/07/10 02:05:40;;;;;;;2.10;0.30;;;;;;;22.20;46.17;99990.09;4334103;32;35481;-87
2021/07/10 02:08:09;;;;;;;2.22;0.30;;;;;;;21.90;46.00;99988.78;4333659;32;33891;-86
2021/07/10 02:10:37;;;;;;;2.92;0.30;;;;;;;22.05;46.26;99988.13;4334818;32;32922;-86
2021/07/10 02:13:10;;;;;;;1.52;0.30;;;;;;;21.95;45.98;99988.59;4322197;32;33300;-87
2021/07/10 02:15:39;;;;;;;1.75;0.30;;;;;;;22.24;45.35;99985.53;4342716;32;34592;-87
2021/07/10 02:18:08;;;;;;;0.45;0.28;;;;;;;22.24;45.29;99982.88;4322724;32;34569;-85
2021/07/10 02:20:36;;;;;;;1.10;0.45;;;;;;;22.10;45.69;99983.50;4333987;32;33393;-85
2021/07/10 02:23:04;;;;;;;0.73;0.28;;;;;;;22.05;45.86;99988.13;4360166;32;35580;-86
2021/07/10 02:25:33;;;;;;;0.60;0.30;;;;;;;22.16;45.32;99985.84;4359749;32;33846;-86
2021/07/10 02:28:01;;;;;;;0.60;0.30;;;;;;;22.00;46.13;99995.41;4333592;32;33949;-86
2021/07/10 02:30:32;;;;;;;0.88;0.30;;;;;;;22.00;45.88;99987.47;4334187;32;33886;-86
2021/07/10 02:33:02;;;;;;;1.60;0.30;;;;;;;21.97;46.03;99994.69;4346052;32;34021;-87
2021/07/10 02:35:30;;;;;;;0.55;0.30;;;;;;;21.96;45.85;99996.50;4333922;32;33765;-86
2021/07/10 02:37:58;;;;;;;1.58;0.20;;;;;;;22.04;46.03;99997.00;4321428;32;35362;-86
2021/07/10 02:40:27;;;;;;;0.95;0.30;;;;;;;22.14;45.77;100000.97;4309763;32;32330;-86
2021/07/10 02:42:56;;;;;;;0.60;0.32;;;;;;;22.05;46.04;100001.38;4359788;32;34827;-86
2021/07/10 02:45:24;;;;;;;0.20;0.20;;;;;;;22.23;45.76;99999.69;4345954;32;34217;-86
2021/07/10 02:47:54;;;;;;;0.70;0.20;;;;;;;22.19;45.84;99998.97;4346041;32;35437;-86
2021/07/10 02:50:23;;;;;;;2.85;0.62;;;;;;;21.97;46.18;100000.84;4334408;32;33579;-85
2021/07/10 02:52:53;;;;;;;0.40;0.30;;;;;;;22.12;45.96;100000.19;4345946;32;34656;-87
2021/07/10 02:55:23;;;;;;;2.25;0.30;;;;;;;21.98;46.52;100007.88;4359750;32;34209;-86
2021/07/10 02:57:51;;;;;;;0.95;0.32;;;;;;;22.11;46.21;100006.41;4333657;32;35136;-86
2021/07/10 03:00:22;;;;;;;0.65;0.30;;;;;;;21.96;46.79;100003.56;4332815;32;33390;-86
2021/07/10 03:02:51;;;;;;;0.25;0.20;;;;;;;21.86;46.85;99995.16;4345157;32;33404;-86
2021/07/10 03:05:19;;;;;;;1.08;0.40;;;;;;;21.84;47.31;100001.41;4332708;32;34382;-86
2021/07/10 03:07:47;;;;;;;0.50;0.30;;;;;;;22.09;46.73;99995.00;4352547;32;33560;-87
2021/07/10 03:10:18;;;;;;;0.40;0.17;;;;;;;22.18;46.45;99999.03;4358649;32;34162;-85
2021/07/10 03:12:46;;;;;;;0.30;0.20;;;;;;;22.13;46.46;100001.03;4332988;32;33796;-85
2021/07/10 03:15:15;;;;;;;0.55;0.20;;;;;;;21.76;47.41;99996.44;4332681;32;34478;-86
2021/07/10 03:17:45;;;;;;;0.65;0.28;;;;;;;21.61;47.85;99998.88;4333587;32;34907;-86
2021/07/10 03:20:14;;;;;;;1.10;0.30;;;;;;;21.55;48.03;99992.91;4333418;32;34312;-86
2021/07/10 03:22:42;;;;;;;1.48;0.20;;;;;;;21.79;47.43;99991.00;4333586;32;34538;-86
2021/07/10 03:25:11;;;;;;;2.83;0.43;;;;;;;21.74;47.73;99993.00;4345912;32;33900;-85
2021/07/10 03:27:40;;;;;;;0.30;0.30;;;;;;;21.90;47.43;99990.56;4334051;32;33727;-88
2021/07/10 03:30:10;;;;;;;1.42;0.40;;;;;;;21.78;47.26;99993.72;4310971;32;34328;-86
2021/07/10 03:32:38;;;;;;;4.95;0.40;;;;;;;21.62;48.06;99997.94;4322765;32;34943;-86
2021/07/10 03:35:11;;;;;;;2.78;0.40;;;;;;;21.68;47.77;99987.09;4323830;32;34183;-88
2021/07/10 03:37:40;;;;;;;0.70;0.22;;;;;;;21.41;48.73;99999.69;4324197;32;33349;-87
2021/07/10 03:40:10;;;;;;;0.20;0.20;;;;;;;21.46;48.64;100010.97;4335962;32;33970;-87
2021/07/10 03:42:39;;;;;;;0.37;0.30;;;;;;;21.43;48.78;99998.72;4348444;32;33970;-86
2021/07/10 03:45:12;;;;;;;2.20;0.30;;;;;;;21.57;48.48;100011.38;4348086;32;34335;-88
2021/07/10 03:47:47;;;;;;;0.45;0.30;;;;;;;21.62;48.37;100022.63;4347797;32;33494;-87
2021/07/10 03:50:16;;;;;;;1.27;0.40;;;;;;;21.54;48.72;100022.06;4347668;32;33557;-88
2021/07/10 03:52:44;;;;;;;0.50;0.50;;;;;;;21.83;48.15;100016.44;4334872;32;33797;-88
2021/07/10 03:55:13;;;;;;;1.12;0.30;;;;;;;21.71;48.41;100027.53;4347318;32;34830;-87
2021/07/10 03:57:41;;;;;;;0.50;0.30;;;;;;;21.89;48.05;100028.59;4323294;32;34499;-89
2021/07/10 04:00:12;;;;;;;0.90;0.50;;;;;;;21.72;48.73;100018.69;4335728;32;33701;-89
2021/07/10 04:02:41;;;;;;;;;;;;;;;21.91;48.37;100016.13;4335646;32;34381;-88
2021/07/10 04:05:10;;;;;;;0.90;0.40;;;;;;;21.90;48.39;100020.56;4335174;32;34268;-87
2021/07/10 04:07:39;;;;;;;1.40;0.40;;;;;;;21.86;48.67;100018.12;4348222;32;34316;-87
2021/07/10 04:10:09;;;;;;;3.33;0.25;;;;;;;22.00;48.57;100021.91;4336089;32;33244;-88
2021/07/10 04:12:37;;;;;;;1.87;0.37;;;;;;;22.21;48.05;100020.97;4336970;32;34275;-89
2021/07/10 04:15:07;;;;;;;0.52;0.30;;;;;;;22.20;47.85;100013.94;4335168;32;34296;-88
2021/07/10 04:17:35;;;;;;;0.50;0.20;;;;;;;22.19;48.05;100016.66;4348064;32;34072;-87
2021/07/10 04:20:05;;;;;;;0.70;0.30;;;;;;;22.24;47.90;100020.84;4323701;32;32920;-90
2021/07/10 04:22:34;;;;;;;0.43;0.40;;;;;;;22.55;47.00;100027.41;4347207;32;33342;-86
2021/07/10 04:25:06;;;;;;;1.50;0.30;;;;;;;22.39;46.84;100029.91;4310729;32;35179;-87
2021/07/10 04:27:34;;;;;;;1.45;0.20;;;;;;;22.34;47.09;100025.72;4335004;32;34882;-87
2021/07/10 04:30:04;;;;;;;0.60;0.30;;;;;;;22.15;47.19;100026.53;4323525;32;35267;-91
2021/07/10 04:32:32;;;;;;;0.75;0.30;;;;;;;22.30;47.13;100035.59;4335607;32;33525;-88
2021/07/10 04:35:00;;;;;;;2.60;0.35;;;;;;;22.55;46.81;100038.00;4360884;32;34651;-89
2021/07/10 04:37:29;;;;;;;1.85;0.40;;;;;;;22.51;46.63;100033.78;4322920;32;33708;-87
2021/07/10 04:39:57;;;;;;;1.58;0.35;;;;;;;22.41;47.22;100037.75;4346490;32;34386;-86
2021/07/10 04:42:30;;;;;;;0.50;0.20;;;;;;;22.53;47.08;100038.09;4322758;32;35000;-86
2021/07/10 04:44:58;;;;;;;1.70;0.40;;;;;;;22.54;46.85;100029.19;4346558;32;35461;-87
2021/07/10 04:47:27;;;;;;;1.95;0.30;;;;;;;22.55;46.87;100032.72;4347102;32;33723;-85
2021/07/10 04:49:56;;;;;;;0.30;0.20;;;;;;;22.49;46.78;100039.12;4347314;32;33051;-86
2021/07/10 04:52:24;;;;;;;3.60;0.45;;;;;;;22.54;46.90;100030.97;4347983;32;34567;-86
2021/07/10 04:54:52;;;;;;;2.22;0.68;;;;;;;22.61;46.65;100035.97;4335448;32;34605;-87
2021/07/10 04:57:19;;;;;;;1.58;0.40;;;;;;;22.72;46.37;100035.50;4334917;32;34585;-86
2021/07/10 04:59:47;;;;;;;0.80;0.30;;;;;;;22.73;46.97;100045.16;4353687;32;34104;-88
2021/07/10 05:02:19;;;;;;;1.85;0.35;;;;;;;22.68;46.11;100037.41;4360534;32;33994;-86
2021/07/10 05:04:48;;;;;;;0.52;0.37;;;;;;;22.84;46.49;100026.97;4360045;32;35698;-87
2021/07/10 05:07:16;;;;;;;1.50;0.40;;;;;;;22.67;46.31;100043.66;4334969;32;34726;-87
2021/07/10 05:09:44;;;;;;;0.73;0.40;;;;;;;23.10;45.78;100045.19;4360694;32;33576;-88
2021/07/10 05:12:11;;;;;;;0.90;0.43;;;;;;;22.99;45.25;100047.44;4335266;32;33572;-88
2021/07/10 05:14:39;;;;;;;1.77;0.30;;;;;;;23.17;45.48;100048.38;4334896;32;35102;-86
2021/07/10 05:17:07;;;;;;;1.70;0.40;;;;;;;23.25;45.07;100063.00;4347524;32;35043;-88
2021/07/10 05:19:35;;;;;;;0.98;0.37;;;;;;;23.41;45.22;100050.78;4347966;32;33911;-87
2021/07/10 05:22:02;;;;;;;4.43;0.60;;;;;;;23.58;44.72;100058.75;4334793;32;34259;-86
2021/07/10 05:24:30;;;;;;;1.70;0.30;;;;;;;23.50;44.62;100060.94;4360795;32;34837;-88
2021/07/10 05:26:58;;;;;;;2.15;0.62;;;;;;;23.63;44.07;100073.63;4334842;32;34520;-87
2021/07/10 05:29:25;;;;;;;1.83;0.55;;;;;;;23.60;44.14;100068.44;4360447;32;33650;-87
2021/07/10 05:31:53;;;;;;;1.65;0.30;;;;;;;23.56;43.92;100057.09;4347476;32;34441;-86
2021/07/10 05:34:21;;;;;;;0.57;0.20;;;;;;;23.59;44.56;100059.59;4346977;32;34949;-88
2021/07/10 05:36:49;;;;;;;0.90;0.20;;;;;;;23.46;45.04;100063.81;4334853;32;33464;-87
2021/07/10 05:39:17;;;;;;;0.88;0.30;;;;;;;23.74;44.54;100064.19;4334621;32;33293;-87
2021/07/10 05:41:45;;;;;;;0.60;0.40;;;;;;;23.73;43.90;100069.53;4323099;32;33715;-88
2021/07/10 05:44:13;;;;;;;1.98;0.30;;;;;;;23.70;44.31;100080.34;4347295;32;34675;-93
2021/07/10 05:46:40;;;;;;;0.88;0.30;;;;;;;23.84;43.65;100075.19;4348984;32;33712;-87
2021/07/10 05:49:08;;;;;;;1.42;0.30;;;;;;;23.77;43.94;100082.59;4335839;32;32617;-86
2021/07/10 05:51:36;;;;;;;1.42;0.30;;;;;;;23.92;44.55;100086.28;4359248;32;34271;-87
2021/07/10 05:54:03;;;;;;;0.40;0.40;;;;;;;23.58;44.81;100084.47;4335208;32;35057;-88
2021/07/10 05:56:31;;;;;;;0.65;0.30;;;;;;;23.83;45.06;100086.75;4334733;32;34302;-87
2021/07/10 05:58:59;;;;;;;0.75;0.30;;;;;;;23.81;44.93;100089.50;4346937;32;33223;-88
2021/07/10 06:01:26;;;;;;;0.30;0.30;;;;;;;23.63;45.11;100093.03;4334487;32;33438;-86
2021/07/10 06:03:54;;;;;;;1.27;0.40;;;;;;;23.86;44.73;100100.75;4334607;32;34173;-87
2021/07/10 06:06:22;;;;;;;1.02;0.30;;;;;;;24.03;44.29;100100.75;4346475;32;34706;-87
2021/07/10 06:08:50;;;;;;;1.65;0.30;;;;;;;23.85;44.29;100106.13;4334440;32;33852;-87
2021/07/10 06:11:18;;;;;;;0.85;0.30;;;;;;;23.84;44.34;100107.06;4346793;32;34426;-88
2021/07/10 06:13:46;;;;;;;1.65;0.30;;;;;;;23.95;43.74;100118.87;4360315;32;34938;-87
2021/07/10 06:16:15;;;;;;;0.22;0.20;;;;;;;23.95;44.61;100121.53;4334430;32;34474;-85
2021/07/10 06:18:46;;;;;;;2.17;0.37;;;;;;;23.90;45.03;100122.69;4359622;32;33444;-89
2021/07/10 06:21:13;;;;;;;1.17;0.40;;;;;;;23.81;44.54;100116.06;4335242;32;33995;-87
2021/07/10 06:23:45;;;;;;;5.40;0.47;;;;;;;23.98;44.50;100118.75;4360198;32;34943;-86
2021/07/10 06:26:12;;;;;;;2.17;0.32;;;;;;;24.18;44.20;100117.75;4334114;32;34513;-86
2021/07/10 06:28:40;;;;;;;3.50;0.40;;;;;;;24.17;42.85;100122.22;4322375;32;33941;-84
2021/07/10 06:31:08;;;;;;;0.52;0.30;;;;;;;24.26;42.62;100120.88;4347086;32;33911;-87
2021/07/10 06:33:36;;;;;;;0.93;0.45;;;;;;;24.32;42.74;100109.09;4360631;32;35488;-87
2021/07/10 06:36:04;;;;;;;1.60;0.35;;;;;;;24.02;44.32;100111.47;4334874;32;35092;-86
2021/07/10 06:38:31;;;;;;;0.65;0.30;;;;;;;24.12;44.07;100118.94;4347193;32;34931;-86
2021/07/10 06:40:59;;;;;;;1.67;0.45;;;;;;;24.50;43.52;100126.75;4335330;32;34046;-87
2021/07/10 06:43:28;;;;;;;2.15;0.43;;;;;;;24.67;43.15;100127.59;4347192;32;34930;-92
2021/07/10 06:45:56;;;;;;;2.25;0.35;;;;;;;24.74;42.31;100130.78;4335115;32;33800;-94
2021/07/10 06:48:36;;;;;;;2.75;0.35;;;;;;;24.96;41.56;100133.19;4338550;32;34351;-95
2021/07/10 06:51:06;;;;;;;2.05;0.40;;;;;;;25.26;42.72;100123.53;4336262;32;33985;-86
2021/07/10 06:53:34;;;;;;;0.73;0.32;;;;;;;25.14;41.93;100126.88;4348176;32;34961;-87
2021/07/10 06:56:03;;;;;;;0.93;0.40;;;;;;;25.24;40.13;100133.41;4348108;32;34688;-88
2021/07/10 06:58:30;;;;;;;2.05;0.37;;;;;;;25.41;40.63;100131.50;4323699;32;33050;-86
2021/07/10 07:00:58;;;;;;;2.20;0.60;;;;;;;25.33;40.52;100140.88;4335645;32;34014;-87
2021/07/10 07:03:28;;;;;;;1.42;0.28;;;;;;;25.10;40.94;100136.84;4337731;32;34375;-88
2021/07/10 07:05:55;;;;;;;0.30;0.30;;;;;;;25.25;40.58;100132.44;4349650;32;34912;-88
2021/07/10 07:08:23;;;;;;;0.75;0.40;;;;;;;24.88;41.43;100131.81;4325686;32;33747;-86
2021/07/10 07:10:51;;;;;;;1.42;0.50;;;;;;;25.27;41.30;100135.91;4337612;32;33838;-86
2021/07/10 07:13:18;;;;;;;1.62;0.40;;;;;;;25.50;41.59;100128.41;4337370;32;34132;-86
2021/07/10 07:15:46;;;;;;;3.53;0.40;;;;;;;25.60;41.61;100131.41;4337480;32;34450;-86
2021/07/10 07:18:15;;;;;;;2.30;0.50;;;;;;;25.56;41.38;100121.84;4349885;32;33782;-85
2021/07/10 07:21:03;;;;;;;1.45;0.30;;;;;;;25.90;40.14;100118.13;4351953;32;34138;-85
2021/07/10 07:23:31;;;;;;;5.20;0.50;;;;;;;26.18;40.30;100108.47;4362959;32;34673;-85
2021/07/10 07:25:58;;;;;;;1.52;0.30;;;;;;;26.02;39.71;100106.75;4337647;32;33785;-85
2021/07/10 07:28:26;;;;;;;1.85;0.20;;;;;;;26.22;40.31;100106.44;4349686;32;33676;-84
2021/07/10 07:30:54;;;;;;;0.43;0.30;;;;;;;26.27;39.63;100111.53;4337291;32;34209;-85
2021/07/10 07:33:22;;;;;;;3.00;0.37;;;;;;;26.70;39.77;100106.16;4349452;32;35464;-86
2021/07/10 07:35:50;;;;;;;1.33;0.20;;;;;;;26.69;39.30;100104.47;4349437;32;34865;-85
2021/07/10 07:38:17;;;;;;;2.95;0.40;;;;;;;26.73;39.12;100105.13;4337368;32;34536;-87
2021/07/10 07:40:45;;;;;;;2.60;0.32;;;;;;;27.15;38.93;100102.47;4349566;32;34072;-87
2021/07/10 07:43:13;;;;;;;0.95;0.30;;;;;;;27.45;38.33;100105.03;4337739;32;35503;-88
2021/07/10 07:45:41;;;;;;;4.18;0.47;;;;;;;27.49;37.73;100107.41;4337510;32;34952;-89
2021/07/10 07:48:12;;;;;;;;;;;;;;;27.56;37.55;100098.97;4349876;32;33240;-87
2021/07/10 07:50:46;;;;;;;0.60;0.20;;;;;;;27.51;38.46;100102.81;4338444;32;34363;-87
2021/07/10 07:53:18;;;;;;;0.40;0.30;;;;;;;27.59;37.00;100099.66;4362715;32;34694;-88
2021/07/10 07:55:46;;;;;;;;;;;;;;;27.50;37.51;100100.25;4363208;32;34102;-86
2021/07/10 07:58:14;;;;;;;4.22;0.22;;;;;;;27.42;37.05;100097.22;4337410;32;34167;-88
2021/07/10 08:00:42;;;;;;;0.30;0.30;;;;;;;27.67;35.86;100094.66;4337225;32;34861;-88
2021/07/10 08:03:11;;;;;;;0.68;0.30;;;;;;;27.80;36.82;100094.69;4337476;32;34572;-87
2021/07/10 08:05:38;;;;;;;1.27;0.30;;;;;;;27.92;35.26;100102.78;4349029;32;34590;-88
2021/07/10 08:08:06;;;;;;;1.98;0.20;;;;;;;28.10;35.81;100100.69;4349287;32;33609;-88
2021/07/10 08:10:34;;;;;;;0.75;0.40;;;;;;;28.27;34.99;100104.91;4337136;32;33331;-86
2021/07/10 08:13:02;;;;;;;0.55;0.30;;;;;;;28.37;35.23;100095.31;4362691;32;34737;-88
2021/07/10 08:15:30;;;;;;;2.17;0.60;;;;;;;28.46;35.00;100103.56;4336763;32;33851;-88
2021/07/10 08:17:58;;;;;;;0.57;0.28;;;;;;;28.53;36.00;100107.50;4336949;32;34051;-88
2021/07/10 08:20:27;;;;;;;1.27;0.40;;;;;;;28.63;34.24;100105.09;4362551;32;34011;-88
2021/07/10 08:22:55;;;;;;;2.90;0.43;;;;;;;28.73;34.84;100096.31;4349377;32;34700;-87
2021/07/10 08:25:24;;;;;;;0.45;0.30;;;;;;;28.74;35.77;100095.34;4336741;32;33720;-89
2021/07/10 08:27:52;;;;;;;1.50;0.40;;;;;;;28.82;35.30;100097.50;4337150;32;33528;-87
2021/07/10 08:30:20;;;;;;;0.88;0.40;;;;;;;28.69;35.56;100102.84;4362498;32;34788;-88
2021/07/10 08:32:48;;;;;;;0.95;0.20;;;;;;;28.55;35.25;100102.09;4362577;32;34920;-87
2021/07/10 08:35:18;;;;;;;2.28;0.30;;;;;;;28.66;35.90;100108.44;4324633;32;34511;-86
2021/07/10 08:37:46;;;;;;;1.33;0.30;;;;;;;28.50;34.38;100107.72;4336678;32;33365;-86
2021/07/10 08:40:15;;;;;;;3.65;0.50;;;;;;;28.63;33.96;100107.78;4336843;32;33437;-86
2021/07/10 08:42:43;;;;;;;0.20;0.20;;;;;;;28.71;35.45;100098.25;4324669;32;34288;-88
2021/07/10 08:45:13;;;;;;;1.12;0.47;;;;;;;28.62;34.63;100101.56;4349155;32;34305;-87
2021/07/10 08:47:42;;;;;;;0.30;0.20;;;;;;;28.60;35.61;100097.28;4349432;32;33182;-88
2021/07/10 08:50:18;;;;;;;1.20;0.30;;;;;;;28.72;34.10;100081.22;4337155;32;34395;-87
2021/07/10 08:52:51;;;;;;;1.73;0.35;;;;;;;28.86;34.34;100082.91;4337319;32;34235;-88
2021/07/10 08:55:19;;;;;;;3.10;0.20;;;;;;;28.63;33.64;100089.91;4336899;32;33313;-88
2021/07/10 08:57:47;;;;;;;0.50;0.30;;;;;;;29.00;33.90;100087.31;4337021;32;34137;-90
2021/07/10 09:00:17;;;;;;;0.55;0.40;;;;;;;29.00;34.64;100084.63;4349094;32;34489;-89
2021/07/10 09:02:48;;;;;;;1.50;0.40;;;;;;;29.31;33.77;100092.22;4362590;32;34974;-89
2021/07/10 09:05:16;;;;;;;0.93;0.30;;;;;;;29.10;34.74;100080.31;4336631;32;33807;-87
2021/07/10 09:08:12;;;;;;;0.60;0.20;;;;;;;29.36;33.13;100080.16;4348926;32;34444;-88
2021/07/10 09:10:42;;;;;;;1.60;0.35;;;;;;;29.33;34.00;100071.53;4336960;32;34333;-88
2021/07/10 09:13:10;;;;;;;0.60;0.20;;;;;;;29.32;34.47;100073.34;4362485;32;34730;-87
2021/07/10 09:15:39;;;;;;;1.83;0.30;;;;;;;29.61;32.26;100078.38;4324662;32;33930;-87
2021/07/10 09:18:11;;;;;;;0.65;0.40;;;;;;;29.69;32.09;100079.50;4349318;32;33313;-86
2021/07/10 09:20:41;;;;;;;2.30;0.45;;;;;;;29.58;33.01;100075.91;4337134;32;33841;-87
2021/07/10 09:23:31;;;;;;;0.95;0.30;;;;;;;29.85;32.87;100074.75;4362430;32;34183;-88
2021/07/10 09:26:21;;;;;;;0.43;0.20;;;;;;;29.69;32.25;100076.00;4335423;32;33883;-88
2021/07/10 09:29:00;;;;;;;0.30;0.30;;;;;;;29.93;31.97;100074.19;4343122;32;33193;-87
2021/07/10 09:31:32;;;;;;;1.12;0.20;;;;;;;29.90;31.50;100067.22;4348643;32;33572;-86
2021/07/10 09:34:08;;;;;;;2.65;0.20;;;;;;;29.89;32.29;100068.19;4362688;32;34921;-87
2021/07/10 09:36:58;;;;;;;0.60;0.37;;;;;;;29.86;32.55;100060.38;4349112;32;33195;-86
2021/07/10 09:39:29;;;;;;;0.88;0.35;;;;;;;29.90;31.94;100064.53;4337808;32;34194;-88
2021/07/10 09:41:59;;;;;;;0.40;0.20;;;;;;;29.94;31.86;100057.97;4324833;32;34300;-87
2021/07/10 09:44:51;;;;;;;0.30;0.30;;;;;;;29.82;30.98;100060.72;4324572;32;34942;-89
2021/07/10 09:47:32;;;;;;;2.90;0.35;;;;;;;30.05;31.99;100065.19;4349065;32;35049;-90
2021/07/10 09:50:03;;;;;;;1.12;0.45;;;;;;;30.11;32.38;100062.06;4348949;32;34275;-89
2021/07/10 09:52:33;;;;;;;0.75;0.30;;;;;;;30.23;32.11;100061.13;4348900;32;34692;-87
2021/07/10 09:55:06;;;;;;;1.73;0.20;;;;;;;30.04;31.38;100056.31;4336719;32;34725;-87
2021/07/10 09:57:36;;;;;;;1.60;0.30;;;;;;;29.78;31.35;100059.25;4336371;32;34671;-87
2021/07/10 10:00:09;;;;;;;2.40;0.20;;;;;;;29.89;31.46;100059.28;4336243;32;33538;-87
2021/07/10 10:02:46;;;;;;;3.03;0.40;;;;;;;29.58;31.72;100044.59;4336298;32;33629;-87
2021/07/10 10:05:17;;;;;;;2.58;0.35;;;;;;;29.95;32.11;100040.06;4336473;32;34921;-87
2021/07/10 10:07:45;;;;;;;0.40;0.30;;;;;;;29.74;32.26;100049.69;4348563;32;34210;-87
2021/07/10 10:10:19;;;;;;;1.33;0.50;;;;;;;30.08;31.50;100044.37;4361911;32;33532;-88
2021/07/10 10:13:05;;;;;;;0.20;0.20;;;;;;;29.97;30.20;100036.28;4348724;32;35044;-87
2021/07/10 10:15:44;;;;;;;0.73;0.40;;;;;;;29.85;32.10;100031.84;4362100;32;35394;-88
2021/07/10 10:18:14;;;;;;;0.73;0.50;;;;;;;29.94;31.63;100031.16;4336364;32;34949;-89
2021/07/10 10:20:43;;;;;;;0.77;0.30;;;;;;;30.32;30.92;100038.06;4348441;32;34469;-87
2021/07/10 10:23:13;;;;;;;0.22;0.20;;;;;;;30.36;29.83;100048.47;4324101;32;34464;-87
2021/07/10 10:25:42;;;;;;;1.05;0.30;;;;;;;30.45;30.95;100036.19;4336186;32;35016;-87
2021/07/10 10:28:19;;;;;;;0.32;0.20;;;;;;;30.33;29.29;100035.31;4361584;32;34156;-86
2021/07/10 10:30:53;;;;;;;0.32;0.32;;;;;;;30.52;29.98;100032.03;4318323;32;33881;-87
2021/07/10 10:33:23;;;;;;;1.10;0.43;;;;;;;30.53;30.47;100023.00;4336258;32;34037;-89
2021/07/10 10:35:53;;;;;;;0.77;0.20;;;;;;;30.44;29.70;100029.09;4347819;32;34219;-88
2021/07/10 10:38:22;;;;;;;1.70;0.35;;;;;;;30.76;30.16;100030.09;4335579;32;33872;-87
2021/07/10 10:40:54;;;;;;;3.17;0.30;;;;;;;30.70;30.37;100031.44;4348127;32;34174;-88
2021/07/10 10:43:25;;;;;;;0.20;0.20;;;;;;;30.72;29.51;100023.25;4336282;32;34362;-88
2021/07/10 10:45:54;;;;;;;0.82;0.30;;;;;;;30.55;29.02;100026.41;4348260;32;35541;-87
2021/07/10 10:48:39;;;;;;;0.37;0.10;;;;;;;30.51;29.12;100019.59;4335591;32;34409;-88
2021/07/10 10:51:30;;;;;;;0.25;0.20;;;;;;;30.68;29.51;100021.78;4348094;32;34377;-87
2021/07/10 10:54:16;;;;;;;1.58;0.30;;;;;;;30.62;29.06;100014.22;4347811;32;34209;-88
2021/07/10 10:56:44;;;;;;;0.32;0.20;;;;;;;30.69;27.96;100010.94;4335501;32;34172;-87
2021/07/10 10:59:35;;;;;;;0.90;0.13;;;;;;;30.66;27.95;100008.50;4335614;32;34237;-88
2021/07/10 11:02:22;;;;;;;1.05;0.25;;;;;;;30.65;27.97;100000.56;4335587;32;33888;-88
2021/07/10 11:04:56;;;;;;;0.20;0.20;;;;;;;30.83;27.58;99998.25;4361493;32;34237;-88
2021/07/10 11:07:32;;;;;;;1.42;0.20;;;;;;;30.74;27.86;99994.44;4361353;32;35454;-92
2021/07/10 11:10:02;;;;;;;1.90;0.22;;;;;;;31.05;27.70;99988.34;4335796;32;33776;-90
2021/07/10 11:12:45;;;;;;;0.30;0.20;;;;;;;31.24;26.56;99987.69;4347899;32;33519;-89
2021/07/10 11:15:40;;;;;;;1.27;0.22;;;;;;;31.12;26.68;99989.53;4347466;32;34805;-89
2021/07/10 11:18:08;;;;;;;1.40;0.20;;;;;;;30.98;26.75;99986.28;4339004;32;34584;-87
2021/07/10 11:20:48;;;;;;;1.08;0.10;;;;;;;31.11;26.65;99978.94;4361098;32;34034;-91
2021/07/10 11:23:30;;;;;;;1.37;0.20;;;;;;;31.34;26.11;99972.50;4347573;32;33555;-88
2021/07/10 11:26:00;;;;;;;0.28;0.20;;;;;;;31.09;27.51;99976.38;4347524;32;34487;-87
2021/07/10 11:28:38;;;;;;;0.30;0.20;;;;;;;31.07;26.91;99972.94;4335300;32;33903;-87
2021/07/10 11:31:10;;;;;;;0.25;0.10;;;;;;;31.13;26.47;99971.59;4347624;32;34046;-88
2021/07/10 11:33:53;;;;;;;0.90;0.10;;;;;;;31.42;25.76;99965.53;4335372;32;33124;-89
2021/07/10 11:36:33;;;;;;;3.78;0.40;;;;;;;31.45;25.21;99970.66;4329216;33;34321;-88
2021/07/10 11:39:03;;;;;;;0.60;0.15;;;;;;;31.26;25.85;99964.25;4342782;32;35594;-88
2021/07/10 11:41:34;;;;;;;0.20;0.10;;;;;;;31.34;25.98;99968.00;4335564;32;34880;-89
2021/07/10 11:44:16;;;;;;;0.10;0.10;;;;;;;31.28;25.73;99965.84;4347494;32;34017;-89